sensor_id;sensor_type;location;lat;lon;timestamp;P1;durP1;ratioP1;P2;durP2;ratioP2
7669;SDS011;3877;42.562;27.636;2024-03-25T00:01:04;12.50;;;7.60;;
7669;SDS011;3877;42.562;27.636;2024-03-25T00:03:30;10.27;;;6.93;;
7669;SDS011;3877;42.562;27.636;2024-03-25T00:05:57;9.25;;;6.90;;
7669;SDS011;3877;42.562;27.636;2024-03-25T00:08:23;11.40;;;6.90;;
7669;SDS011;3877;42.562;27.636;2024-03-25T00:10:50;10.40;;;7.63;;
7669;SDS011;3877;42.562;27.636;2024-03-25T00:13:18;9.00;;;7.20;;
7669;SDS011;3877;42.562;27.636;2024-03-25T00:15:46;11.60;;;7.73;;
7669;SDS011;3877;42.562;27.636;2024-03-25T00:18:12;13.37;;;7.40;;
7669;SDS011;3877;42.562;27.636;2024-03-25T00:20:39;11.00;;;7.83;;
7669;SDS011;3877;42.562;27.636;2024-03-25T00:23:04;12.38;;;8.32;;
7669;SDS011;3877;42.562;27.636;2024-03-25T00:25:32;10.82;;;7.70;;
7669;SDS011;3877;42.562;27.636;2024-03-25T00:27:58;12.93;;;7.70;;
7669;SDS011;3877;42.562;27.636;2024-03-25T00:30:27;14.83;;;7.57;;
7669;SDS011;3877;42.562;27.636;2024-03-25T00:32:54;11.73;;;8.00;;
7669;SDS011;3877;42.562;27.636;2024-03-25T00:35:21;12.47;;;7.77;;
7669;SDS011;3877;42.562;27.636;2024-03-25T00:37:48;11.77;;;7.77;;
7669;SDS011;3877;42.562;27.636;2024-03-25T00:40:15;12.80;;;7.43;;
7669;SDS011;3877;42.562;27.636;2024-03-25T00:42:42;12.33;;;7.60;;
7669;SDS011;3877;42.562;27.636;2024-03-25T00:45:09;9.47;;;7.50;;
7669;SDS011;3877;42.562;27.636;2024-03-25T00:47:37;12.27;;;8.13;;
7669;SDS011;3877;42.562;27.636;2024-03-25T00:50:05;14.03;;;8.20;;
7669;SDS011;3877;42.562;27.636;2024-03-25T00:52:31;12.70;;;7.63;;
7669;SDS011;3877;42.562;27.636;2024-03-25T00:54:58;11.87;;;8.13;;
7669;SDS011;3877;42.562;27.636;2024-03-25T00:57:24;15.00;;;8.43;;
7669;SDS011;3877;42.562;27.636;2024-03-25T00:59:51;13.50;;;8.43;;
7669;SDS011;3877;42.562;27.636;2024-03-25T01:02:17;11.03;;;7.87;;
7669;SDS011;3877;42.562;27.636;2024-03-25T01:04:45;11.30;;;8.80;;
7669;SDS011;3877;42.562;27.636;2024-03-25T01:07:13;10.47;;;8.27;;
7669;SDS011;3877;42.562;27.636;2024-03-25T01:09:39;15.37;;;9.30;;
7669;SDS011;3877;42.562;27.636;2024-03-25T01:12:06;12.20;;;9.27;;
7669;SDS011;3877;42.562;27.636;2024-03-25T01:14:32;14.50;;;9.70;;
7669;SDS011;3877;42.562;27.636;2024-03-25T01:16:59;18.60;;;9.53;;
7669;SDS011;3877;42.562;27.636;2024-03-25T01:19:25;16.37;;;10.57;;
7669;SDS011;3877;42.562;27.636;2024-03-25T01:21:54;13.83;;;9.97;;
7669;SDS011;3877;42.562;27.636;2024-03-25T01:24:19;15.37;;;9.90;;
7669;SDS011;3877;42.562;27.636;2024-03-25T01:26:47;15.37;;;10.70;;
7669;SDS011;3877;42.562;27.636;2024-03-25T01:29:12;15.47;;;10.87;;
7669;SDS011;3877;42.562;27.636;2024-03-25T01:31:39;16.57;;;11.30;;
7669;SDS011;3877;42.562;27.636;2024-03-25T01:34:05;14.07;;;10.40;;
7669;SDS011;3877;42.562;27.636;2024-03-25T01:36:33;15.67;;;10.73;;
7669;SDS011;3877;42.562;27.636;2024-03-25T01:39:01;12.15;;;9.68;;
7669;SDS011;3877;42.562;27.636;2024-03-25T01:41:30;15.10;;;9.77;;
7669;SDS011;3877;42.562;27.636;2024-03-25T01:43:56;18.13;;;10.87;;
7669;SDS011;3877;42.562;27.636;2024-03-25T01:46:23;17.73;;;10.30;;
7669;SDS011;3877;42.562;27.636;2024-03-25T01:48:49;17.93;;;10.43;;
7669;SDS011;3877;42.562;27.636;2024-03-25T01:51:18;16.63;;;10.33;;
7669;SDS011;3877;42.562;27.636;2024-03-25T01:53:44;14.77;;;10.27;;
7669;SDS011;3877;42.562;27.636;2024-03-25T01:56:14;20.80;;;11.17;;
7669;SDS011;3877;42.562;27.636;2024-03-25T01:58:41;17.93;;;10.70;;
7669;SDS011;3877;42.562;27.636;2024-03-25T02:01:08;16.92;;;10.95;;
7669;SDS011;3877;42.562;27.636;2024-03-25T02:03:39;14.57;;;10.60;;
7669;SDS011;3877;42.562;27.636;2024-03-25T02:06:09;14.40;;;9.80;;
7669;SDS011;3877;42.562;27.636;2024-03-25T02:08:35;13.73;;;9.57;;
7669;SDS011;3877;42.562;27.636;2024-03-25T02:11:03;12.90;;;9.53;;
7669;SDS011;3877;42.562;27.636;2024-03-25T02:13:30;17.13;;;9.70;;
7669;SDS011;3877;42.562;27.636;2024-03-25T02:15:57;19.83;;;9.90;;
7669;SDS011;3877;42.562;27.636;2024-03-25T02:18:23;14.73;;;10.50;;
7669;SDS011;3877;42.562;27.636;2024-03-25T02:20:50;14.07;;;10.07;;
7669;SDS011;3877;42.562;27.636;2024-03-25T02:23:16;16.57;;;10.57;;
7669;SDS011;3877;42.562;27.636;2024-03-25T02:28:11;14.00;;;10.23;;
7669;SDS011;3877;42.562;27.636;2024-03-25T02:30:37;17.17;;;10.33;;
7669;SDS011;3877;42.562;27.636;2024-03-25T02:33:06;14.57;;;10.17;;
7669;SDS011;3877;42.562;27.636;2024-03-25T02:35:33;14.73;;;10.03;;
7669;SDS011;3877;42.562;27.636;2024-03-25T02:37:59;16.87;;;10.87;;
7669;SDS011;3877;42.562;27.636;2024-03-25T02:40:28;13.10;;;10.63;;
7669;SDS011;3877;42.562;27.636;2024-03-25T02:42:54;16.00;;;10.83;;
7669;SDS011;3877;42.562;27.636;2024-03-25T02:45:23;16.53;;;11.23;;
7669;SDS011;3877;42.562;27.636;2024-03-25T02:47:49;18.27;;;11.33;;
7669;SDS011;3877;42.562;27.636;2024-03-25T02:50:16;20.80;;;13.00;;
7669;SDS011;3877;42.562;27.636;2024-03-25T02:52:42;19.07;;;12.13;;
7669;SDS011;3877;42.562;27.636;2024-03-25T02:55:10;16.40;;;11.70;;
7669;SDS011;3877;42.562;27.636;2024-03-25T02:57:35;34.30;;;18.27;;
7669;SDS011;3877;42.562;27.636;2024-03-25T03:00:03;23.15;;;13.98;;
7669;SDS011;3877;42.562;27.636;2024-03-25T03:02:31;23.27;;;13.50;;
7669;SDS011;3877;42.562;27.636;2024-03-25T03:04:58;17.10;;;12.60;;
7669;SDS011;3877;42.562;27.636;2024-03-25T03:07:24;18.37;;;11.90;;
7669;SDS011;3877;42.562;27.636;2024-03-25T03:09:53;15.90;;;11.07;;
7669;SDS011;3877;42.562;27.636;2024-03-25T03:12:19;15.50;;;11.03;;
7669;SDS011;3877;42.562;27.636;2024-03-25T03:14:46;17.17;;;9.30;;
7669;SDS011;3877;42.562;27.636;2024-03-25T03:17:12;15.10;;;9.98;;
7669;SDS011;3877;42.562;27.636;2024-03-25T03:19:41;11.67;;;9.53;;
7669;SDS011;3877;42.562;27.636;2024-03-25T03:22:07;10.57;;;7.50;;
7669;SDS011;3877;42.562;27.636;2024-03-25T03:24:34;12.47;;;7.60;;
7669;SDS011;3877;42.562;27.636;2024-03-25T03:27:00;11.30;;;7.40;;
7669;SDS011;3877;42.562;27.636;2024-03-25T03:29:27;10.83;;;7.17;;
7669;SDS011;3877;42.562;27.636;2024-03-25T03:31:53;11.00;;;7.87;;
7669;SDS011;3877;42.562;27.636;2024-03-25T03:34:20;10.33;;;7.40;;
7669;SDS011;3877;42.562;27.636;2024-03-25T03:36:48;9.00;;;6.23;;
7669;SDS011;3877;42.562;27.636;2024-03-25T03:39:15;7.63;;;6.30;;
7669;SDS011;3877;42.562;27.636;2024-03-25T03:41:41;8.93;;;6.93;;
7669;SDS011;3877;42.562;27.636;2024-03-25T03:44:08;10.73;;;6.60;;
7669;SDS011;3877;42.562;27.636;2024-03-25T03:46:35;8.23;;;6.40;;
7669;SDS011;3877;42.562;27.636;2024-03-25T03:49:02;10.83;;;6.70;;
7669;SDS011;3877;42.562;27.636;2024-03-25T03:51:28;8.77;;;6.97;;
7669;SDS011;3877;42.562;27.636;2024-03-25T03:53:56;13.03;;;7.20;;
7669;SDS011;3877;42.562;27.636;2024-03-25T03:56:22;10.00;;;6.37;;
7669;SDS011;3877;42.562;27.636;2024-03-25T03:58:49;7.60;;;6.37;;
7669;SDS011;3877;42.562;27.636;2024-03-25T04:01:16;10.43;;;6.70;;
7669;SDS011;3877;42.562;27.636;2024-03-25T04:03:44;7.97;;;6.40;;
7669;SDS011;3877;42.562;27.636;2024-03-25T04:06:10;8.73;;;6.30;;
7669;SDS011;3877;42.562;27.636;2024-03-25T04:08:38;7.23;;;6.40;;
7669;SDS011;3877;42.562;27.636;2024-03-25T04:11:05;10.53;;;6.90;;
7669;SDS011;3877;42.562;27.636;2024-03-25T04:13:32;7.03;;;6.13;;
7669;SDS011;3877;42.562;27.636;2024-03-25T04:16:00;12.13;;;6.63;;
7669;SDS011;3877;42.562;27.636;2024-03-25T04:18:28;10.07;;;6.77;;
7669;SDS011;3877;42.562;27.636;2024-03-25T04:20:54;10.77;;;6.27;;
7669;SDS011;3877;42.562;27.636;2024-03-25T04:23:21;7.90;;;6.57;;
7669;SDS011;3877;42.562;27.636;2024-03-25T04:25:48;12.17;;;6.67;;
7669;SDS011;3877;42.562;27.636;2024-03-25T04:28:16;8.47;;;7.10;;
7669;SDS011;3877;42.562;27.636;2024-03-25T04:30:43;9.87;;;6.70;;
7669;SDS011;3877;42.562;27.636;2024-03-25T04:33:10;11.13;;;7.60;;
7669;SDS011;3877;42.562;27.636;2024-03-25T04:35:36;11.50;;;7.57;;
7669;SDS011;3877;42.562;27.636;2024-03-25T04:38:03;10.07;;;7.67;;
7669;SDS011;3877;42.562;27.636;2024-03-25T04:40:32;12.17;;;7.77;;
7669;SDS011;3877;42.562;27.636;2024-03-25T04:42:59;12.00;;;7.97;;
7669;SDS011;3877;42.562;27.636;2024-03-25T04:45:29;12.53;;;8.40;;
7669;SDS011;3877;42.562;27.636;2024-03-25T04:47:55;8.97;;;7.43;;
7669;SDS011;3877;42.562;27.636;2024-03-25T04:50:21;9.90;;;7.60;;
7669;SDS011;3877;42.562;27.636;2024-03-25T04:52:47;9.90;;;7.13;;
7669;SDS011;3877;42.562;27.636;2024-03-25T04:55:12;9.50;;;7.20;;
7669;SDS011;3877;42.562;27.636;2024-03-25T04:57:38;7.97;;;6.63;;
7669;SDS011;3877;42.562;27.636;2024-03-25T05:00:05;10.50;;;7.83;;
7669;SDS011;3877;42.562;27.636;2024-03-25T05:02:32;14.83;;;7.13;;
7669;SDS011;3877;42.562;27.636;2024-03-25T05:04:58;7.23;;;5.27;;
7669;SDS011;3877;42.562;27.636;2024-03-25T05:07:24;9.57;;;5.47;;
7669;SDS011;3877;42.562;27.636;2024-03-25T05:09:50;8.80;;;5.40;;
7669;SDS011;3877;42.562;27.636;2024-03-25T05:12:15;6.50;;;4.90;;
7669;SDS011;3877;42.562;27.636;2024-03-25T05:14:41;6.50;;;4.30;;
7669;SDS011;3877;42.562;27.636;2024-03-25T05:17:07;11.43;;;4.10;;
7669;SDS011;3877;42.562;27.636;2024-03-25T05:19:34;7.07;;;4.10;;
7669;SDS011;3877;42.562;27.636;2024-03-25T05:22:13;4.10;;;3.33;;
7669;SDS011;3877;42.562;27.636;2024-03-25T05:24:39;4.43;;;3.40;;
7669;SDS011;3877;42.562;27.636;2024-03-25T05:27:05;4.17;;;3.37;;
7669;SDS011;3877;42.562;27.636;2024-03-25T05:29:31;6.43;;;2.30;;
7669;SDS011;3877;42.562;27.636;2024-03-25T05:31:57;2.97;;;2.67;;
7669;SDS011;3877;42.562;27.636;2024-03-25T05:34:23;3.33;;;2.97;;
7669;SDS011;3877;42.562;27.636;2024-03-25T05:36:51;8.37;;;2.80;;
7669;SDS011;3877;42.562;27.636;2024-03-25T05:39:16;5.13;;;2.50;;
7669;SDS011;3877;42.562;27.636;2024-03-25T05:41:42;3.33;;;2.40;;
7669;SDS011;3877;42.562;27.636;2024-03-25T05:44:08;3.97;;;2.00;;
7669;SDS011;3877;42.562;27.636;2024-03-25T05:46:34;2.97;;;2.10;;
7669;SDS011;3877;42.562;27.636;2024-03-25T05:49:01;3.20;;;2.30;;
7669;SDS011;3877;42.562;27.636;2024-03-25T05:51:27;6.07;;;2.00;;
7669;SDS011;3877;42.562;27.636;2024-03-25T05:53:54;2.80;;;2.00;;
7669;SDS011;3877;42.562;27.636;2024-03-25T05:56:20;8.17;;;2.40;;
7669;SDS011;3877;42.562;27.636;2024-03-25T05:58:46;2.60;;;2.17;;
7669;SDS011;3877;42.562;27.636;2024-03-25T06:01:12;3.63;;;1.97;;
7669;SDS011;3877;42.562;27.636;2024-03-25T06:03:38;7.70;;;2.80;;
7669;SDS011;3877;42.562;27.636;2024-03-25T06:06:04;4.40;;;2.30;;
7669;SDS011;3877;42.562;27.636;2024-03-25T06:08:30;2.30;;;2.00;;
7669;SDS011;3877;42.562;27.636;2024-03-25T06:11:01;2.63;;;2.10;;
7669;SDS011;3877;42.562;27.636;2024-03-25T06:13:27;4.07;;;2.20;;
7669;SDS011;3877;42.562;27.636;2024-03-25T06:15:53;2.20;;;1.90;;
7669;SDS011;3877;42.562;27.636;2024-03-25T06:18:19;2.50;;;2.30;;
7669;SDS011;3877;42.562;27.636;2024-03-25T06:20:45;3.70;;;2.27;;
7669;SDS011;3877;42.562;27.636;2024-03-25T06:23:11;3.07;;;2.57;;
7669;SDS011;3877;42.562;27.636;2024-03-25T06:25:47;3.23;;;2.27;;
7669;SDS011;3877;42.562;27.636;2024-03-25T06:28:14;3.37;;;2.37;;
7669;SDS011;3877;42.562;27.636;2024-03-25T06:30:40;4.03;;;2.97;;
7669;SDS011;3877;42.562;27.636;2024-03-25T06:33:24;5.73;;;4.60;;
7669;SDS011;3877;42.562;27.636;2024-03-25T06:36:08;8.03;;;3.80;;
7669;SDS011;3877;42.562;27.636;2024-03-25T06:38:35;2.70;;;2.03;;
7669;SDS011;3877;42.562;27.636;2024-03-25T06:41:00;2.50;;;1.80;;
7669;SDS011;3877;42.562;27.636;2024-03-25T06:43:28;1.83;;;1.10;;
7669;SDS011;3877;42.562;27.636;2024-03-25T06:45:54;1.73;;;1.63;;
7669;SDS011;3877;42.562;27.636;2024-03-25T06:48:19;3.03;;;1.60;;
7669;SDS011;3877;42.562;27.636;2024-03-25T06:50:52;2.10;;;1.90;;
7669;SDS011;3877;42.562;27.636;2024-03-25T06:53:17;1.87;;;1.60;;
7669;SDS011;3877;42.562;27.636;2024-03-25T06:55:50;1.52;;;1.42;;
7669;SDS011;3877;42.562;27.636;2024-03-25T06:58:16;2.35;;;1.60;;
7669;SDS011;3877;42.562;27.636;2024-03-25T07:00:43;2.27;;;2.00;;
7669;SDS011;3877;42.562;27.636;2024-03-25T07:03:09;2.83;;;1.50;;
7669;SDS011;3877;42.562;27.636;2024-03-25T07:05:35;2.70;;;2.20;;
7669;SDS011;3877;42.562;27.636;2024-03-25T07:08:01;2.87;;;2.03;;
7669;SDS011;3877;42.562;27.636;2024-03-25T07:10:27;1.00;;;1.00;;
7669;SDS011;3877;42.562;27.636;2024-03-25T07:12:52;2.03;;;1.70;;
7669;SDS011;3877;42.562;27.636;2024-03-25T07:15:18;2.30;;;1.57;;
7669;SDS011;3877;42.562;27.636;2024-03-25T07:17:46;3.10;;;1.97;;
7669;SDS011;3877;42.562;27.636;2024-03-25T07:20:12;2.50;;;1.80;;
7669;SDS011;3877;42.562;27.636;2024-03-25T07:22:38;2.73;;;1.70;;
7669;SDS011;3877;42.562;27.636;2024-03-25T07:25:04;2.80;;;1.73;;
7669;SDS011;3877;42.562;27.636;2024-03-25T07:27:30;4.40;;;2.30;;
7669;SDS011;3877;42.562;27.636;2024-03-25T07:29:56;3.00;;;2.40;;
7669;SDS011;3877;42.562;27.636;2024-03-25T07:32:21;2.97;;;2.23;;
7669;SDS011;3877;42.562;27.636;2024-03-25T07:34:49;3.40;;;2.83;;
7669;SDS011;3877;42.562;27.636;2024-03-25T07:37:14;4.03;;;2.60;;
7669;SDS011;3877;42.562;27.636;2024-03-25T07:39:40;3.40;;;1.93;;
7669;SDS011;3877;42.562;27.636;2024-03-25T07:42:06;1.93;;;1.70;;
7669;SDS011;3877;42.562;27.636;2024-03-25T07:44:32;3.60;;;2.20;;
7669;SDS011;3877;42.562;27.636;2024-03-25T07:46:58;2.77;;;2.10;;
7669;SDS011;3877;42.562;27.636;2024-03-25T07:49:24;2.47;;;1.80;;
7669;SDS011;3877;42.562;27.636;2024-03-25T07:51:51;1.90;;;1.40;;
7669;SDS011;3877;42.562;27.636;2024-03-25T07:54:17;2.13;;;1.70;;
7669;SDS011;3877;42.562;27.636;2024-03-25T07:56:43;2.73;;;1.50;;
7669;SDS011;3877;42.562;27.636;2024-03-25T07:59:08;1.63;;;1.37;;
7669;SDS011;3877;42.562;27.636;2024-03-25T08:01:34;4.43;;;1.80;;
7669;SDS011;3877;42.562;27.636;2024-03-25T08:04:00;3.30;;;1.70;;
7669;SDS011;3877;42.562;27.636;2024-03-25T08:06:26;2.77;;;2.00;;
7669;SDS011;3877;42.562;27.636;2024-03-25T08:08:53;2.93;;;1.70;;
7669;SDS011;3877;42.562;27.636;2024-03-25T08:11:19;2.57;;;1.20;;
7669;SDS011;3877;42.562;27.636;2024-03-25T08:13:46;3.43;;;2.10;;
7669;SDS011;3877;42.562;27.636;2024-03-25T08:16:12;2.93;;;2.20;;
7669;SDS011;3877;42.562;27.636;2024-03-25T08:18:38;3.40;;;2.37;;
7669;SDS011;3877;42.562;27.636;2024-03-25T08:21:04;1.90;;;1.70;;
7669;SDS011;3877;42.562;27.636;2024-03-25T08:23:30;7.40;;;5.37;;
7669;SDS011;3877;42.562;27.636;2024-03-25T08:25:57;3.23;;;1.47;;
7669;SDS011;3877;42.562;27.636;2024-03-25T08:28:23;2.13;;;1.30;;
7669;SDS011;3877;42.562;27.636;2024-03-25T08:30:49;2.70;;;1.42;;
7669;SDS011;3877;42.562;27.636;2024-03-25T08:33:14;3.03;;;2.27;;
7669;SDS011;3877;42.562;27.636;2024-03-25T08:35:40;5.40;;;3.13;;
7669;SDS011;3877;42.562;27.636;2024-03-25T08:38:06;9.07;;;5.17;;
7669;SDS011;3877;42.562;27.636;2024-03-25T08:40:32;7.33;;;4.70;;
7669;SDS011;3877;42.562;27.636;2024-03-25T08:43:00;4.20;;;2.80;;
7669;SDS011;3877;42.562;27.636;2024-03-25T08:45:26;3.83;;;2.60;;
7669;SDS011;3877;42.562;27.636;2024-03-25T08:47:51;4.67;;;2.03;;
7669;SDS011;3877;42.562;27.636;2024-03-25T08:50:17;3.60;;;2.10;;
7669;SDS011;3877;42.562;27.636;2024-03-25T08:52:43;2.90;;;2.20;;
7669;SDS011;3877;42.562;27.636;2024-03-25T08:55:09;4.60;;;2.83;;
7669;SDS011;3877;42.562;27.636;2024-03-25T08:57:35;5.03;;;3.30;;
7669;SDS011;3877;42.562;27.636;2024-03-25T09:00:03;5.57;;;3.60;;
7669;SDS011;3877;42.562;27.636;2024-03-25T09:02:29;5.07;;;3.60;;
7669;SDS011;3877;42.562;27.636;2024-03-25T09:04:55;3.17;;;2.47;;
7669;SDS011;3877;42.562;27.636;2024-03-25T09:07:21;2.83;;;2.23;;
7669;SDS011;3877;42.562;27.636;2024-03-25T09:09:47;3.43;;;1.93;;
7669;SDS011;3877;42.562;27.636;2024-03-25T09:12:31;4.70;;;2.10;;
7669;SDS011;3877;42.562;27.636;2024-03-25T09:14:57;2.50;;;1.60;;
7669;SDS011;3877;42.562;27.636;2024-03-25T09:17:24;1.20;;;1.10;;
7669;SDS011;3877;42.562;27.636;2024-03-25T09:19:50;2.10;;;1.47;;
7669;SDS011;3877;42.562;27.636;2024-03-25T09:22:17;1.93;;;1.40;;
7669;SDS011;3877;42.562;27.636;2024-03-25T09:24:43;2.60;;;2.40;;
7669;SDS011;3877;42.562;27.636;2024-03-25T09:27:09;4.87;;;4.13;;
7669;SDS011;3877;42.562;27.636;2024-03-25T09:29:35;5.93;;;4.60;;
7669;SDS011;3877;42.562;27.636;2024-03-25T09:32:01;5.07;;;4.57;;
7669;SDS011;3877;42.562;27.636;2024-03-25T09:34:28;4.80;;;3.73;;
7669;SDS011;3877;42.562;27.636;2024-03-25T09:36:54;3.90;;;3.40;;
7669;SDS011;3877;42.562;27.636;2024-03-25T09:39:20;4.87;;;3.73;;
7669;SDS011;3877;42.562;27.636;2024-03-25T09:41:46;5.27;;;4.00;;
7669;SDS011;3877;42.562;27.636;2024-03-25T09:44:13;4.90;;;4.20;;
7669;SDS011;3877;42.562;27.636;2024-03-25T09:46:39;6.77;;;4.67;;
7669;SDS011;3877;42.562;27.636;2024-03-25T09:49:05;6.80;;;4.30;;
7669;SDS011;3877;42.562;27.636;2024-03-25T09:51:32;6.00;;;4.60;;
7669;SDS011;3877;42.562;27.636;2024-03-25T09:53:58;6.13;;;4.23;;
7669;SDS011;3877;42.562;27.636;2024-03-25T09:56:23;6.67;;;5.23;;
7669;SDS011;3877;42.562;27.636;2024-03-25T09:58:49;6.47;;;5.23;;
7669;SDS011;3877;42.562;27.636;2024-03-25T10:01:15;5.70;;;5.10;;
7669;SDS011;3877;42.562;27.636;2024-03-25T10:03:42;4.63;;;4.10;;
7669;SDS011;3877;42.562;27.636;2024-03-25T10:06:07;4.63;;;3.93;;
7669;SDS011;3877;42.562;27.636;2024-03-25T10:08:35;6.30;;;4.50;;
7669;SDS011;3877;42.562;27.636;2024-03-25T10:11:01;5.07;;;4.13;;
7669;SDS011;3877;42.562;27.636;2024-03-25T10:13:27;6.77;;;4.40;;
7669;SDS011;3877;42.562;27.636;2024-03-25T10:15:54;5.17;;;4.37;;
7669;SDS011;3877;42.562;27.636;2024-03-25T10:18:20;4.07;;;3.63;;
7669;SDS011;3877;42.562;27.636;2024-03-25T10:20:49;4.27;;;3.43;;
7669;SDS011;3877;42.562;27.636;2024-03-25T10:23:15;4.70;;;3.97;;
7669;SDS011;3877;42.562;27.636;2024-03-25T10:25:42;4.83;;;3.30;;
7669;SDS011;3877;42.562;27.636;2024-03-25T10:28:09;4.47;;;3.77;;
7669;SDS011;3877;42.562;27.636;2024-03-25T10:30:34;4.37;;;3.73;;
7669;SDS011;3877;42.562;27.636;2024-03-25T10:33:01;3.83;;;3.23;;
7669;SDS011;3877;42.562;27.636;2024-03-25T10:35:27;4.30;;;3.33;;
7669;SDS011;3877;42.562;27.636;2024-03-25T10:37:55;6.73;;;3.80;;
7669;SDS011;3877;42.562;27.636;2024-03-25T10:40:22;8.03;;;3.60;;
7669;SDS011;3877;42.562;27.636;2024-03-25T10:42:49;4.90;;;3.83;;
7669;SDS011;3877;42.562;27.636;2024-03-25T10:45:15;5.70;;;4.20;;
7669;SDS011;3877;42.562;27.636;2024-03-25T10:47:41;5.80;;;4.50;;
7669;SDS011;3877;42.562;27.636;2024-03-25T10:50:08;3.00;;;2.70;;
7669;SDS011;3877;42.562;27.636;2024-03-25T10:52:35;3.47;;;2.50;;
7669;SDS011;3877;42.562;27.636;2024-03-25T10:55:02;2.73;;;2.37;;
7669;SDS011;3877;42.562;27.636;2024-03-25T10:57:28;2.67;;;2.30;;
7669;SDS011;3877;42.562;27.636;2024-03-25T10:59:56;3.80;;;2.93;;
7669;SDS011;3877;42.562;27.636;2024-03-25T11:02:23;3.63;;;2.70;;
7669;SDS011;3877;42.562;27.636;2024-03-25T11:04:49;2.93;;;2.37;;
7669;SDS011;3877;42.562;27.636;2024-03-25T11:07:16;2.70;;;2.00;;
7669;SDS011;3877;42.562;27.636;2024-03-25T11:09:42;2.73;;;2.07;;
7669;SDS011;3877;42.562;27.636;2024-03-25T11:12:09;2.10;;;1.80;;
7669;SDS011;3877;42.562;27.636;2024-03-25T11:14:35;2.70;;;2.00;;
7669;SDS011;3877;42.562;27.636;2024-03-25T11:17:13;6.50;;;2.40;;
7669;SDS011;3877;42.562;27.636;2024-03-25T11:19:39;1.67;;;1.40;;
7669;SDS011;3877;42.562;27.636;2024-03-25T11:22:09;1.27;;;1.17;;
7669;SDS011;3877;42.562;27.636;2024-03-25T11:24:35;1.57;;;1.27;;
7669;SDS011;3877;42.562;27.636;2024-03-25T11:27:01;0.90;;;0.90;;
7669;SDS011;3877;42.562;27.636;2024-03-25T11:29:27;1.00;;;0.93;;
7669;SDS011;3877;42.562;27.636;2024-03-25T11:31:53;0.90;;;0.90;;
7669;SDS011;3877;42.562;27.636;2024-03-25T11:34:21;1.97;;;1.00;;
7669;SDS011;3877;42.562;27.636;2024-03-25T11:36:47;1.00;;;1.00;;
7669;SDS011;3877;42.562;27.636;2024-03-25T11:39:13;2.53;;;1.20;;
7669;SDS011;3877;42.562;27.636;2024-03-25T11:41:39;1.97;;;1.00;;
7669;SDS011;3877;42.562;27.636;2024-03-25T11:44:05;1.47;;;1.20;;
7669;SDS011;3877;42.562;27.636;2024-03-25T11:46:31;0.93;;;0.93;;
7669;SDS011;3877;42.562;27.636;2024-03-25T11:48:58;1.10;;;1.00;;
7669;SDS011;3877;42.562;27.636;2024-03-25T11:51:25;2.23;;;0.90;;
7669;SDS011;3877;42.562;27.636;2024-03-25T11:53:51;2.00;;;0.90;;
7669;SDS011;3877;42.562;27.636;2024-03-25T11:56:17;0.73;;;0.70;;
7669;SDS011;3877;42.562;27.636;2024-03-25T11:58:43;1.37;;;1.00;;
7669;SDS011;3877;42.562;27.636;2024-03-25T12:01:10;0.87;;;0.87;;
7669;SDS011;3877;42.562;27.636;2024-03-25T12:03:36;0.90;;;0.70;;
7669;SDS011;3877;42.562;27.636;2024-03-25T12:06:02;0.90;;;0.90;;
7669;SDS011;3877;42.562;27.636;2024-03-25T12:08:31;2.03;;;1.83;;
7669;SDS011;3877;42.562;27.636;2024-03-25T12:10:56;0.70;;;0.70;;
7669;SDS011;3877;42.562;27.636;2024-03-25T12:13:41;0.73;;;0.73;;
7669;SDS011;3877;42.562;27.636;2024-03-25T12:16:06;2.17;;;0.90;;
7669;SDS011;3877;42.562;27.636;2024-03-25T12:18:32;3.10;;;1.03;;
7669;SDS011;3877;42.562;27.636;2024-03-25T12:20:58;0.83;;;0.83;;
7669;SDS011;3877;42.562;27.636;2024-03-25T12:23:29;0.73;;;0.73;;
7669;SDS011;3877;42.562;27.636;2024-03-25T12:25:55;1.13;;;0.70;;
7669;SDS011;3877;42.562;27.636;2024-03-25T12:28:21;0.80;;;0.80;;
7669;SDS011;3877;42.562;27.636;2024-03-25T12:30:50;0.70;;;0.70;;
7669;SDS011;3877;42.562;27.636;2024-03-25T12:33:16;0.70;;;0.70;;
7669;SDS011;3877;42.562;27.636;2024-03-25T12:35:44;1.17;;;0.77;;
7669;SDS011;3877;42.562;27.636;2024-03-25T12:38:20;0.80;;;0.70;;
7669;SDS011;3877;42.562;27.636;2024-03-25T12:40:48;0.63;;;0.50;;
7669;SDS011;3877;42.562;27.636;2024-03-25T12:43:14;3.27;;;1.10;;
7669;SDS011;3877;42.562;27.636;2024-03-25T12:45:40;0.90;;;0.53;;
7669;SDS011;3877;42.562;27.636;2024-03-25T12:48:06;0.57;;;0.57;;
7669;SDS011;3877;42.562;27.636;2024-03-25T12:50:51;0.67;;;0.67;;
7669;SDS011;3877;42.562;27.636;2024-03-25T12:53:17;0.70;;;0.70;;
7669;SDS011;3877;42.562;27.636;2024-03-25T12:55:43;0.97;;;0.87;;
7669;SDS011;3877;42.562;27.636;2024-03-25T12:58:11;1.00;;;0.90;;
7669;SDS011;3877;42.562;27.636;2024-03-25T13:00:37;0.90;;;0.90;;
7669;SDS011;3877;42.562;27.636;2024-03-25T13:03:03;0.90;;;0.90;;
7669;SDS011;3877;42.562;27.636;2024-03-25T13:05:30;1.00;;;1.00;;
7669;SDS011;3877;42.562;27.636;2024-03-25T13:07:56;0.93;;;0.93;;
7669;SDS011;3877;42.562;27.636;2024-03-25T13:10:21;0.80;;;0.80;;
7669;SDS011;3877;42.562;27.636;2024-03-25T13:12:47;0.77;;;0.77;;
7669;SDS011;3877;42.562;27.636;2024-03-25T13:15:15;2.20;;;0.90;;
7669;SDS011;3877;42.562;27.636;2024-03-25T13:17:41;0.97;;;0.80;;
7669;SDS011;3877;42.562;27.636;2024-03-25T13:20:07;0.70;;;0.70;;
7669;SDS011;3877;42.562;27.636;2024-03-25T13:22:34;2.30;;;0.97;;
7669;SDS011;3877;42.562;27.636;2024-03-25T13:25:00;2.20;;;1.07;;
7669;SDS011;3877;42.562;27.636;2024-03-25T13:27:25;1.37;;;1.10;;
7669;SDS011;3877;42.562;27.636;2024-03-25T13:29:52;1.80;;;1.10;;
7669;SDS011;3877;42.562;27.636;2024-03-25T13:32:19;0.90;;;0.90;;
7669;SDS011;3877;42.562;27.636;2024-03-25T13:34:45;0.93;;;0.93;;
7669;SDS011;3877;42.562;27.636;2024-03-25T13:37:11;1.83;;;1.23;;
7669;SDS011;3877;42.562;27.636;2024-03-25T13:39:37;1.20;;;1.10;;
7669;SDS011;3877;42.562;27.636;2024-03-25T13:42:03;3.37;;;1.10;;
7669;SDS011;3877;42.562;27.636;2024-03-25T13:44:29;1.23;;;1.10;;
7669;SDS011;3877;42.562;27.636;2024-03-25T13:46:54;1.83;;;1.20;;
7669;SDS011;3877;42.562;27.636;2024-03-25T13:49:22;1.53;;;1.10;;
7669;SDS011;3877;42.562;27.636;2024-03-25T13:51:48;3.33;;;1.20;;
7669;SDS011;3877;42.562;27.636;2024-03-25T13:54:14;2.73;;;1.60;;
7669;SDS011;3877;42.562;27.636;2024-03-25T13:56:39;1.00;;;1.00;;
7669;SDS011;3877;42.562;27.636;2024-03-25T13:59:06;1.37;;;1.07;;
7669;SDS011;3877;42.562;27.636;2024-03-25T14:01:32;3.33;;;1.17;;
7669;SDS011;3877;42.562;27.636;2024-03-25T14:03:58;2.27;;;1.07;;
7669;SDS011;3877;42.562;27.636;2024-03-25T14:06:25;1.40;;;1.30;;
7669;SDS011;3877;42.562;27.636;2024-03-25T14:08:51;1.13;;;1.00;;
7669;SDS011;3877;42.562;27.636;2024-03-25T14:11:17;1.73;;;1.20;;
7669;SDS011;3877;42.562;27.636;2024-03-25T14:13:44;3.30;;;1.30;;
7669;SDS011;3877;42.562;27.636;2024-03-25T14:16:10;1.33;;;1.23;;
7669;SDS011;3877;42.562;27.636;2024-03-25T14:18:35;2.67;;;1.50;;
7669;SDS011;3877;42.562;27.636;2024-03-25T14:21:02;2.67;;;1.90;;
7669;SDS011;3877;42.562;27.636;2024-03-25T14:23:29;1.90;;;1.53;;
7669;SDS011;3877;42.562;27.636;2024-03-25T14:25:55;1.83;;;1.37;;
7669;SDS011;3877;42.562;27.636;2024-03-25T14:28:21;1.30;;;1.13;;
7669;SDS011;3877;42.562;27.636;2024-03-25T14:30:46;1.23;;;1.13;;
7669;SDS011;3877;42.562;27.636;2024-03-25T14:33:12;1.03;;;0.97;;
7669;SDS011;3877;42.562;27.636;2024-03-25T14:35:38;1.83;;;1.53;;
7669;SDS011;3877;42.562;27.636;2024-03-25T14:38:04;2.30;;;1.10;;
7669;SDS011;3877;42.562;27.636;2024-03-25T14:40:31;2.83;;;1.20;;
7669;SDS011;3877;42.562;27.636;2024-03-25T14:42:57;2.13;;;1.80;;
7669;SDS011;3877;42.562;27.636;2024-03-25T14:45:23;1.80;;;1.60;;
7669;SDS011;3877;42.562;27.636;2024-03-25T14:47:49;2.47;;;1.40;;
7669;SDS011;3877;42.562;27.636;2024-03-25T14:50:15;2.33;;;2.00;;
7669;SDS011;3877;42.562;27.636;2024-03-25T14:52:41;3.87;;;2.10;;
7669;SDS011;3877;42.562;27.636;2024-03-25T14:55:07;5.60;;;2.33;;